createdAt,value
2023-10-29T00:02:13.075Z,73.81
2023-10-29T00:04:40.502Z,73.84
2023-10-29T00:07:07.346Z,73.82
2023-10-29T00:09:34.430Z,73.87
2023-10-29T00:12:01.739Z,73.84
2023-10-29T00:14:28.748Z,73.85
2023-10-29T00:16:55.905Z,73.81
2023-10-29T00:19:22.949Z,73.79
2023-10-29T00:21:50.021Z,73.91
2023-10-29T00:24:16.802Z,73.92
2023-10-29T00:26:43.634Z,73.90
2023-10-29T00:29:10.732Z,73.89
2023-10-29T00:31:37.805Z,73.92
2023-10-29T00:34:05.023Z,73.96
2023-10-29T00:36:32.129Z,73.93
2023-10-29T00:38:58.965Z,73.92
2023-10-29T00:41:26.365Z,74.01
2023-10-29T00:43:53.542Z,74.07
2023-10-29T00:46:21.236Z,74.09
2023-10-29T00:48:49.431Z,74.11
2023-10-29T00:51:16.675Z,74.04
2023-10-29T00:53:44.958Z,74.01
2023-10-29T00:56:14.017Z,74.00
2023-10-29T00:58:42.656Z,73.98
2023-10-29T01:01:09.758Z,73.99
2023-10-29T01:03:36.988Z,73.98
2023-10-29T01:06:04.874Z,73.94
2023-10-29T01:08:32.132Z,73.92
2023-10-29T01:10:59.262Z,73.94
2023-10-29T01:13:26.296Z,73.97
2023-10-29T01:15:53.405Z,74.03
2023-10-29T01:18:20.494Z,74.22
2023-10-29T01:20:47.661Z,74.19
2023-10-29T01:23:14.940Z,74.26
2023-10-29T01:25:42.916Z,74.35
2023-10-29T01:28:10.054Z,74.36
2023-10-29T01:30:37.130Z,74.32
2023-10-29T01:33:04.176Z,74.40
2023-10-29T01:35:31.478Z,74.30
2023-10-29T01:37:58.467Z,74.29
2023-10-29T01:40:25.305Z,74.35
2023-10-29T01:42:52.357Z,74.34
2023-10-29T01:45:19.224Z,74.31
2023-10-29T01:47:46.889Z,74.38
2023-10-29T01:50:14.603Z,74.43
2023-10-29T01:52:41.844Z,74.41
2023-10-29T01:55:10.378Z,74.42
2023-10-29T01:57:37.755Z,74.39
2023-10-29T02:00:07.267Z,74.38
2023-10-29T02:02:34.933Z,74.39
2023-10-29T02:05:08.088Z,74.34
2023-10-29T02:07:35.274Z,74.37
2023-10-29T02:10:09.205Z,74.37
2023-10-29T02:12:36.799Z,74.42
2023-10-29T02:15:05.936Z,74.36
2023-10-29T02:17:33.340Z,74.38
2023-10-29T02:20:00.823Z,74.43
2023-10-29T02:22:30.946Z,74.45
2023-10-29T02:24:57.978Z,74.52
2023-10-29T02:27:25.012Z,74.54
2023-10-29T02:29:52.123Z,74.52
2023-10-29T02:32:19.013Z,74.51
2023-10-29T02:34:45.944Z,74.50
2023-10-29T02:37:12.849Z,74.45
2023-10-29T02:39:40.073Z,74.37
2023-10-29T02:42:07.308Z,74.29
2023-10-29T02:44:34.431Z,74.18
2023-10-29T02:47:01.248Z,74.12
2023-10-29T02:49:28.417Z,74.11
2023-10-29T02:51:55.438Z,74.07
2023-10-29T02:54:22.516Z,74.08
2023-10-29T02:56:49.898Z,74.00
2023-10-29T02:59:16.959Z,74.00
2023-10-29T03:01:43.948Z,73.99
2023-10-29T03:04:11.125Z,74.02
2023-10-29T03:06:42.968Z,74.08
2023-10-29T03:09:10.807Z,74.01
2023-10-29T03:11:37.675Z,74.05
2023-10-29T03:14:04.981Z,74.12
2023-10-29T03:16:32.095Z,74.12
2023-10-29T03:18:59.518Z,74.09
2023-10-29T03:21:27.786Z,74.17
2023-10-29T03:23:54.806Z,74.15
2023-10-29T03:26:21.929Z,74.14
2023-10-29T03:28:49.675Z,74.18
2023-10-29T03:31:17.803Z,74.27
2023-10-29T03:33:46.296Z,74.23
2023-10-29T03:36:14.129Z,74.26
2023-10-29T03:38:41.522Z,74.21
2023-10-29T03:41:19.260Z,74.21
2023-10-29T03:43:46.334Z,74.18
2023-10-29T03:46:13.145Z,74.22
2023-10-29T03:48:45.834Z,74.18
2023-10-29T03:51:14.230Z,74.17
2023-10-29T03:53:41.994Z,74.25
2023-10-29T03:56:09.381Z,74.21
2023-10-29T03:58:36.654Z,74.14
2023-10-29T04:01:03.680Z,74.18
2023-10-29T04:03:31.051Z,74.24
2023-10-29T04:05:58.287Z,74.20
2023-10-29T04:08:25.541Z,74.20
2023-10-29T04:10:53.366Z,74.18
2023-10-29T04:13:20.437Z,74.24
2023-10-29T04:15:47.888Z,74.24
2023-10-29T04:18:15.387Z,74.23
2023-10-29T04:20:42.390Z,74.24
2023-10-29T04:23:09.224Z,74.27
2023-10-29T04:25:36.451Z,74.28
2023-10-29T04:28:03.586Z,74.30
2023-10-29T04:30:30.756Z,74.34
2023-10-29T04:32:57.868Z,74.36
2023-10-29T04:35:25.325Z,74.33
2023-10-29T04:37:52.450Z,74.35
2023-10-29T04:40:19.937Z,74.29
2023-10-29T04:42:46.840Z,74.25
2023-10-29T04:45:14.079Z,74.19
2023-10-29T04:47:41.212Z,74.18
2023-10-29T04:50:08.556Z,74.18
2023-10-29T04:52:35.616Z,74.14
2023-10-29T04:55:02.881Z,74.09
2023-10-29T04:57:30.461Z,74.05
2023-10-29T04:59:57.950Z,74.07
2023-10-29T05:02:25.134Z,74.04
2023-10-29T05:04:52.384Z,74.05
2023-10-29T05:07:19.654Z,74.06
2023-10-29T05:09:46.880Z,74.04
2023-10-29T05:12:13.826Z,74.04
2023-10-29T05:14:40.988Z,74.10
2023-10-29T05:17:08.479Z,74.08
2023-10-29T05:19:35.668Z,74.09
2023-10-29T05:22:02.538Z,74.07
2023-10-29T05:24:29.640Z,74.07
2023-10-29T05:26:56.487Z,74.07
2023-10-29T05:29:23.678Z,74.13
2023-10-29T05:31:50.517Z,74.15
2023-10-29T05:34:17.400Z,74.13
2023-10-29T05:36:44.747Z,74.11
2023-10-29T05:39:11.812Z,74.08
2023-10-29T05:41:38.881Z,74.05
2023-10-29T05:44:06.217Z,74.06
2023-10-29T05:46:33.752Z,74.01
2023-10-29T05:49:00.936Z,73.97
2023-10-29T05:51:28.521Z,73.94
2023-10-29T05:53:56.549Z,73.93
2023-10-29T05:56:24.276Z,73.89
2023-10-29T05:58:51.095Z,73.90
2023-10-29T06:01:18.470Z,73.86
2023-10-29T06:03:45.552Z,73.84
2023-10-29T06:06:12.537Z,73.77
2023-10-29T06:08:39.913Z,73.76
2023-10-29T06:11:07.090Z,73.69
2023-10-29T06:13:34.119Z,73.68
2023-10-29T06:16:01.356Z,73.66
2023-10-29T06:18:28.725Z,73.63
2023-10-29T06:20:56.127Z,73.64
2023-10-29T06:23:23.022Z,73.62
2023-10-29T06:25:49.867Z,73.65
2023-10-29T06:28:16.910Z,73.64
2023-10-29T06:30:45.467Z,73.57
2023-10-29T06:33:12.743Z,73.56
2023-10-29T06:35:41.949Z,73.49
2023-10-29T06:38:08.942Z,73.45
2023-10-29T06:40:36.227Z,73.47
2023-10-29T06:43:04.822Z,73.43
2023-10-29T06:45:31.764Z,73.36
2023-10-29T06:47:59.387Z,73.31
2023-10-29T06:50:26.494Z,73.29
2023-10-29T06:52:53.306Z,73.34
2023-10-29T06:55:21.573Z,73.35
2023-10-29T06:57:48.392Z,73.41
2023-10-29T07:00:15.341Z,73.44
2023-10-29T07:02:42.376Z,73.53
2023-10-29T07:05:09.495Z,73.62
2023-10-29T07:07:36.785Z,73.75
2023-10-29T07:10:05.460Z,73.79
2023-10-29T07:12:32.937Z,73.90
2023-10-29T07:14:59.965Z,74.05
2023-10-29T07:17:26.908Z,74.19
2023-10-29T07:19:53.946Z,74.34
2023-10-29T07:22:21.066Z,74.46
2023-10-29T07:24:48.245Z,74.56
2023-10-29T07:27:15.887Z,74.63
2023-10-29T07:29:43.684Z,74.66
2023-10-29T07:32:10.785Z,74.71
2023-10-29T07:34:37.949Z,74.78
2023-10-29T07:37:05.017Z,74.84
2023-10-29T07:39:32.160Z,74.93
2023-10-29T07:41:59.081Z,75.00
2023-10-29T07:44:26.094Z,74.94
2023-10-29T07:46:53.259Z,74.95
2023-10-29T07:49:21.612Z,74.92
2023-10-29T07:51:51.760Z,74.92
2023-10-29T07:54:18.997Z,74.87
2023-10-29T07:56:46.423Z,74.75
2023-10-29T07:59:13.346Z,74.71
2023-10-29T08:01:40.496Z,74.72
2023-10-29T08:04:09.147Z,74.60
2023-10-29T08:06:36.065Z,74.67
2023-10-29T08:09:03.016Z,74.69
2023-10-29T08:11:30.738Z,74.79
2023-10-29T08:13:58.140Z,74.77
2023-10-29T08:16:25.141Z,74.63
2023-10-29T08:18:52.077Z,74.61
2023-10-29T08:21:19.375Z,74.58
2023-10-29T08:23:49.575Z,74.54
2023-10-29T08:26:17.555Z,74.56
2023-10-29T08:28:44.561Z,74.49
2023-10-29T08:31:11.997Z,74.42
2023-10-29T08:33:38.892Z,74.21
2023-10-29T08:36:06.005Z,74.29
2023-10-29T08:38:33.112Z,74.25
2023-10-29T08:41:00.316Z,74.29
2023-10-29T08:43:29.128Z,74.27
2023-10-29T08:45:58.307Z,74.41
2023-10-29T08:48:26.302Z,74.49
2023-10-29T08:50:53.467Z,74.58
2023-10-29T08:53:20.555Z,74.49
2023-10-29T08:55:47.677Z,74.44
2023-10-29T08:58:14.869Z,74.32
2023-10-29T09:00:46.624Z,74.24
2023-10-29T09:03:16.025Z,74.26
2023-10-29T09:05:44.169Z,74.03
2023-10-29T09:08:11.463Z,73.82
2023-10-29T09:10:43.454Z,73.63
2023-10-29T09:13:11.234Z,73.53
2023-10-29T09:15:38.809Z,73.40
2023-10-29T09:18:06.924Z,73.30
2023-10-29T09:20:34.167Z,73.22
2023-10-29T09:23:01.391Z,73.23
2023-10-29T09:25:28.536Z,73.06
2023-10-29T09:27:55.393Z,73.02
2023-10-29T09:30:22.604Z,72.77
2023-10-29T09:32:50.435Z,72.95
2023-10-29T09:35:17.372Z,73.17
2023-10-29T09:37:44.281Z,73.19
2023-10-29T09:40:15.354Z,73.52
2023-10-29T09:42:57.028Z,73.27
2023-10-29T09:45:26.625Z,73.11
2023-10-29T09:47:54.320Z,72.62
2023-10-29T09:50:25.517Z,72.61
2023-10-29T09:52:54.423Z,72.56
2023-10-29T09:55:23.291Z,72.68
2023-10-29T09:57:51.516Z,72.45
2023-10-29T10:00:19.096Z,72.45
2023-10-29T10:02:57.005Z,71.90
2023-10-29T10:05:25.930Z,71.90
2023-10-29T10:07:53.407Z,72.26
2023-10-29T10:10:22.204Z,71.93
2023-10-29T10:12:51.104Z,71.96
2023-10-29T10:15:19.515Z,71.92
2023-10-29T10:17:50.978Z,71.97
2023-10-29T10:20:22.405Z,71.78
2023-10-29T10:22:58.840Z,71.71
2023-10-29T10:25:27.226Z,71.78
2023-10-29T10:27:56.800Z,71.58
2023-10-29T10:30:29.392Z,71.54
2023-10-29T10:33:13.128Z,71.59
2023-10-29T10:35:46.890Z,71.62
2023-10-29T10:38:16.172Z,71.81
2023-10-29T10:40:43.585Z,71.58
2023-10-29T10:43:10.738Z,71.26
2023-10-29T10:45:38.776Z,71.38
2023-10-29T10:48:07.018Z,71.56
2023-10-29T10:50:35.951Z,71.38
2023-10-29T10:53:04.264Z,71.38
2023-10-29T10:55:47.526Z,71.23
2023-10-29T10:58:19.909Z,71.15
2023-10-29T11:00:50.260Z,71.43
2023-10-29T11:03:31.765Z,71.23
2023-10-29T11:05:59.245Z,71.13
2023-10-29T11:08:27.169Z,71.09
2023-10-29T11:10:58.520Z,71.17
2023-10-29T11:13:27.645Z,71.16
2023-10-29T11:15:56.559Z,71.15
2023-10-29T11:18:33.446Z,71.28
2023-10-29T11:21:03.827Z,71.24
2023-10-29T11:23:31.555Z,71.21
2023-10-29T11:26:21.908Z,71.15
2023-10-29T11:28:55.988Z,71.09
2023-10-29T11:31:24.612Z,71.06
2023-10-29T11:33:57.379Z,71.07
2023-10-29T11:36:36.123Z,71.11
2023-10-29T11:39:15.986Z,71.12
2023-10-29T11:41:50.267Z,71.07
2023-10-29T11:44:26.772Z,71.04
2023-10-29T11:46:59.530Z,71.06
2023-10-29T11:49:50.568Z,71.06
2023-10-29T11:52:17.743Z,71.04
2023-10-29T11:54:45.020Z,70.91
2023-10-29T11:57:13.062Z,70.89
2023-10-29T11:59:56.399Z,70.93
2023-10-29T12:02:25.095Z,70.86
2023-10-29T12:04:52.425Z,70.80
2023-10-29T12:07:26.564Z,70.87
2023-10-29T12:10:07.372Z,70.68
2023-10-29T12:12:35.013Z,70.62
2023-10-29T12:15:02.820Z,70.34
2023-10-29T12:17:30.186Z,70.19
2023-10-29T12:19:57.519Z,69.97
2023-10-29T12:22:26.599Z,69.94
2023-10-29T12:24:56.657Z,69.83
2023-10-29T12:27:24.271Z,69.76
2023-10-29T12:29:52.004Z,69.66
2023-10-29T12:32:26.691Z,69.74
2023-10-29T12:34:53.437Z,69.62
2023-10-29T12:37:32.054Z,69.57
2023-10-29T12:40:01.286Z,69.32
2023-10-29T12:42:54.676Z,69.22
2023-10-29T12:45:32.818Z,69.01
2023-10-29T12:48:14.108Z,68.89
2023-10-29T12:51:08.296Z,68.83
2023-10-29T12:53:35.303Z,68.85
2023-10-29T12:56:02.894Z,68.82
2023-10-29T12:58:30.296Z,68.82
2023-10-29T13:00:58.859Z,68.81
2023-10-29T13:03:26.303Z,68.84
2023-10-29T13:05:55.787Z,68.88
2023-10-29T13:08:25.741Z,68.90
2023-10-29T13:10:54.343Z,69.00
2023-10-29T13:13:24.942Z,69.06
2023-10-29T13:15:52.209Z,69.19
2023-10-29T13:18:20.540Z,69.24
2023-10-29T13:20:48.797Z,69.37
2023-10-29T13:23:15.909Z,69.39
2023-10-29T13:25:42.977Z,69.34
2023-10-29T13:28:10.212Z,69.33
2023-10-29T13:30:37.811Z,69.37
2023-10-29T13:33:05.397Z,69.32
2023-10-29T13:35:33.164Z,69.36
2023-10-29T13:38:00.578Z,69.39
2023-10-29T13:40:27.449Z,69.38
2023-10-29T13:42:55.092Z,69.37
2023-10-29T13:45:22.250Z,69.36
2023-10-29T13:47:49.503Z,69.38
2023-10-29T13:50:16.778Z,69.40
2023-10-29T13:52:44.313Z,69.37
2023-10-29T13:55:11.613Z,69.35
2023-10-29T13:57:38.536Z,69.35
2023-10-29T14:00:08.125Z,69.34
2023-10-29T14:02:36.616Z,69.37
2023-10-29T14:05:04.027Z,69.38
2023-10-29T14:07:33.201Z,69.40
2023-10-29T14:10:00.446Z,69.40
2023-10-29T14:12:27.279Z,69.45
2023-10-29T14:14:54.475Z,69.45
2023-10-29T14:17:21.819Z,69.47
2023-10-29T14:19:48.805Z,69.52
2023-10-29T14:22:16.358Z,69.54
2023-10-29T14:24:43.884Z,69.61
2023-10-29T14:27:11.320Z,69.61
2023-10-29T14:29:38.405Z,69.62
2023-10-29T14:32:06.864Z,69.66
2023-10-29T14:34:33.884Z,69.74
2023-10-29T14:37:01.298Z,69.75
2023-10-29T14:39:28.763Z,69.71
2023-10-29T14:41:55.900Z,69.73
2023-10-29T14:44:23.013Z,69.72
2023-10-29T14:46:50.398Z,69.68
2023-10-29T14:49:18.009Z,69.67
2023-10-29T14:51:45.497Z,69.70
2023-10-29T14:54:13.732Z,69.71
2023-10-29T14:56:41.357Z,69.62
2023-10-29T14:59:11.565Z,69.53
2023-10-29T15:01:39.140Z,69.46
2023-10-29T15:04:06.463Z,69.29
2023-10-29T15:06:34.157Z,69.26
2023-10-29T15:09:01.506Z,69.19
2023-10-29T15:11:36.693Z,69.13
2023-10-29T15:14:06.631Z,69.13
2023-10-29T15:16:34.493Z,69.13
2023-10-29T15:19:04.639Z,69.00
2023-10-29T15:21:34.054Z,68.84
2023-10-29T15:24:01.808Z,68.68
2023-10-29T15:26:28.931Z,68.64
2023-10-29T15:28:56.280Z,68.57
2023-10-29T15:31:23.689Z,68.49
2023-10-29T15:33:51.226Z,68.43
2023-10-29T15:36:19.323Z,68.45
2023-10-29T15:38:47.026Z,68.47
2023-10-29T15:41:14.546Z,68.46
2023-10-29T15:43:41.998Z,68.52
2023-10-29T15:46:10.345Z,68.56
2023-10-29T15:48:38.886Z,68.62
2023-10-29T15:51:09.880Z,68.62
2023-10-29T15:53:38.041Z,68.74
2023-10-29T15:56:10.063Z,68.83
2023-10-29T15:58:37.640Z,68.79
2023-10-29T16:01:05.675Z,68.82
2023-10-29T16:03:33.730Z,68.86
2023-10-29T16:06:09.040Z,68.94
2023-10-29T16:08:40.209Z,68.99
2023-10-29T16:11:09.508Z,69.05
2023-10-29T16:13:38.287Z,69.07
2023-10-29T16:16:06.711Z,69.08
2023-10-29T16:18:34.849Z,69.13
2023-10-29T16:21:02.828Z,69.18
2023-10-29T16:23:31.543Z,69.20
2023-10-29T16:25:59.179Z,69.22
2023-10-29T16:28:26.770Z,69.18
2023-10-29T16:30:56.852Z,69.14
2023-10-29T16:33:25.055Z,69.12
2023-10-29T16:35:54.825Z,69.11
2023-10-29T16:38:23.468Z,69.12
2023-10-29T16:40:52.162Z,69.12
2023-10-29T16:43:20.338Z,69.12
2023-10-29T16:45:48.360Z,69.12
2023-10-29T16:48:17.883Z,69.13
2023-10-29T16:50:59.799Z,69.18
2023-10-29T16:53:32.199Z,69.14
2023-10-29T16:56:07.990Z,69.17
2023-10-29T16:58:36.810Z,69.22
2023-10-29T17:01:05.289Z,69.15
2023-10-29T17:03:33.177Z,69.14
2023-10-29T17:06:01.091Z,69.16
2023-10-29T17:08:29.358Z,69.19
2023-10-29T17:11:02.647Z,69.09
2023-10-29T17:13:31.149Z,69.09
2023-10-29T17:16:05.691Z,69.03
2023-10-29T17:18:34.095Z,68.95
2023-10-29T17:21:02.940Z,68.87
2023-10-29T17:23:30.966Z,68.82
2023-10-29T17:25:59.596Z,68.82
2023-10-29T17:28:28.144Z,68.80
2023-10-29T17:30:56.109Z,68.79
2023-10-29T17:33:25.080Z,68.81
2023-10-29T17:35:52.992Z,68.87
2023-10-29T17:38:20.891Z,68.87
2023-10-29T17:40:48.951Z,68.91
2023-10-29T17:43:17.080Z,68.88
2023-10-29T17:45:46.533Z,68.80
2023-10-29T17:48:14.634Z,68.80
2023-10-29T17:50:45.696Z,68.80
2023-10-29T17:53:13.367Z,68.86
2023-10-29T17:55:41.165Z,68.99
2023-10-29T17:58:08.818Z,68.88
2023-10-29T18:00:36.750Z,69.48
2023-10-29T18:03:04.226Z,69.56
2023-10-29T18:05:33.218Z,69.65
2023-10-29T18:08:00.910Z,69.70
2023-10-29T18:10:29.072Z,69.70
2023-10-29T18:13:00.052Z,69.73
2023-10-29T18:15:27.625Z,69.71
2023-10-29T18:17:57.026Z,69.72
2023-10-29T18:20:26.210Z,69.74
2023-10-29T18:22:56.376Z,69.71
2023-10-29T18:25:24.534Z,69.70
2023-10-29T18:27:52.546Z,69.67
2023-10-29T18:30:22.109Z,69.71
2023-10-29T18:32:56.978Z,69.73
2023-10-29T18:35:24.823Z,69.77
2023-10-29T18:37:55.272Z,69.73
2023-10-29T18:40:23.285Z,69.76
2023-10-29T18:42:52.610Z,69.76
2023-10-29T18:45:20.704Z,69.79
2023-10-29T18:47:51.527Z,69.76
2023-10-29T18:50:21.107Z,69.79
2023-10-29T18:52:49.402Z,69.81
2023-10-29T18:55:18.516Z,69.86
2023-10-29T18:57:46.411Z,69.87
2023-10-29T19:00:16.050Z,69.91
2023-10-29T19:02:44.711Z,69.91
2023-10-29T19:05:14.739Z,69.93
2023-10-29T19:07:43.953Z,69.92
2023-10-29T19:10:12.311Z,69.93
2023-10-29T19:12:40.642Z,69.95
2023-10-29T19:15:10.736Z,69.94
2023-10-29T19:17:41.402Z,69.92
2023-10-29T19:20:09.685Z,69.91
2023-10-29T19:22:37.676Z,69.90
2023-10-29T19:25:07.884Z,69.88
2023-10-29T19:27:36.521Z,69.88
2023-10-29T19:30:06.533Z,69.84
2023-10-29T19:32:37.407Z,69.82
2023-10-29T19:35:05.516Z,69.80
2023-10-29T19:37:33.388Z,69.78
2023-10-29T19:40:04.112Z,69.77
2023-10-29T19:42:33.239Z,69.81
2023-10-29T19:45:04.891Z,69.79
2023-10-29T19:47:35.288Z,69.79
2023-10-29T19:50:04.987Z,69.79
2023-10-29T19:52:43.520Z,69.79
2023-10-29T19:55:17.217Z,69.78
2023-10-29T19:57:48.913Z,69.79
2023-10-29T20:00:21.697Z,69.89
2023-10-29T20:02:50.706Z,69.94
2023-10-29T20:05:19.277Z,69.97
2023-10-29T20:07:48.005Z,70.01
2023-10-29T20:10:16.256Z,70.07
2023-10-29T20:12:44.772Z,70.09
2023-10-29T20:15:17.368Z,70.14
2023-10-29T20:17:47.123Z,70.18
2023-10-29T20:20:17.869Z,70.21
2023-10-29T20:22:46.358Z,70.25
2023-10-29T20:25:15.421Z,70.28
2023-10-29T20:27:44.320Z,70.31
2023-10-29T20:30:11.995Z,70.34
2023-10-29T20:32:40.665Z,70.33
2023-10-29T20:35:09.453Z,70.36
2023-10-29T20:37:37.475Z,70.35
2023-10-29T20:40:06.287Z,70.40
2023-10-29T20:42:34.314Z,70.40
2023-10-29T20:45:02.509Z,70.43
2023-10-29T20:47:31.092Z,70.45
2023-10-29T20:49:58.839Z,70.47
2023-10-29T20:52:26.614Z,70.51
2023-10-29T20:54:54.311Z,70.54
2023-10-29T20:57:24.169Z,70.58
2023-10-29T20:59:51.975Z,70.59
2023-10-29T21:02:19.403Z,70.62
2023-10-29T21:04:46.935Z,70.67
2023-10-29T21:07:14.378Z,70.67
2023-10-29T21:09:42.351Z,70.65
2023-10-29T21:12:09.638Z,70.69
2023-10-29T21:14:37.060Z,70.75
2023-10-29T21:17:04.895Z,70.77
2023-10-29T21:19:32.959Z,70.83
2023-10-29T21:22:01.968Z,70.84
2023-10-29T21:24:29.983Z,70.88
2023-10-29T21:26:57.524Z,70.88
2023-10-29T21:29:25.234Z,70.92
2023-10-29T21:31:52.474Z,70.94
2023-10-29T21:34:19.371Z,70.97
2023-10-29T21:36:46.560Z,71.01
2023-10-29T21:39:14.028Z,71.05
2023-10-29T21:41:41.232Z,71.06
2023-10-29T21:44:08.072Z,71.05
2023-10-29T21:46:35.829Z,71.04
2023-10-29T21:49:02.767Z,71.08
2023-10-29T21:51:31.305Z,71.08
2023-10-29T21:53:58.399Z,71.09
2023-10-29T21:56:25.588Z,71.12
2023-10-29T21:58:53.174Z,71.14
2023-10-29T22:01:23.810Z,71.14
2023-10-29T22:03:51.324Z,71.19
2023-10-29T22:06:18.911Z,71.20
2023-10-29T22:08:46.052Z,71.19
2023-10-29T22:11:15.613Z,71.19
2023-10-29T22:13:43.127Z,71.22
2023-10-29T22:16:12.824Z,71.32
2023-10-29T22:18:40.471Z,71.34
2023-10-29T22:21:14.147Z,71.32
2023-10-29T22:23:41.641Z,71.33
2023-10-29T22:26:09.658Z,71.34
2023-10-29T22:28:38.082Z,71.40
2023-10-29T22:31:05.730Z,71.46
2023-10-29T22:33:33.842Z,71.43
2023-10-29T22:36:05.462Z,71.42
2023-10-29T22:38:32.888Z,71.49
2023-10-29T22:41:07.597Z,71.51
2023-10-29T22:43:35.198Z,71.51
2023-10-29T22:46:03.453Z,71.57
2023-10-29T22:48:30.749Z,71.61
2023-10-29T22:51:01.437Z,71.62
2023-10-29T22:53:28.651Z,71.63
2023-10-29T22:55:59.377Z,71.66
2023-10-29T22:58:29.608Z,71.65
2023-10-29T23:00:57.232Z,71.64
2023-10-29T23:03:25.737Z,71.67
2023-10-29T23:05:53.459Z,71.63
2023-10-29T23:08:20.424Z,71.68
2023-10-29T23:10:47.305Z,71.67
2023-10-29T23:13:14.363Z,71.68
2023-10-29T23:15:41.877Z,71.74
2023-10-29T23:18:08.756Z,71.71
2023-10-29T23:20:35.861Z,71.71
2023-10-29T23:23:04.503Z,71.69
2023-10-29T23:25:31.585Z,71.70
2023-10-29T23:27:58.359Z,71.65
2023-10-29T23:30:25.638Z,71.69
2023-10-29T23:32:52.570Z,71.69
2023-10-29T23:35:19.777Z,71.69
2023-10-29T23:37:46.660Z,71.69
2023-10-29T23:40:14.030Z,71.68
2023-10-29T23:42:42.570Z,71.67
2023-10-29T23:45:09.989Z,71.70
2023-10-29T23:47:37.347Z,71.67
2023-10-29T23:50:05.079Z,71.65
2023-10-29T23:52:32.751Z,71.63
2023-10-29T23:55:00.000Z,71.62
2023-10-29T23:57:27.890Z,71.60
2023-10-29T23:59:55.345Z,71.57
